sensor_id;sensor_type;location;lat;lon;timestamp;P1;durP1;ratioP1;P2;durP2;ratioP2
18443;SDS011;9350;53.176;8.194;2023-01-28T00:00:50;5.00;;;4.50;;
18443;SDS011;9350;53.176;8.194;2023-01-28T00:03:17;4.57;;;4.18;;
18443;SDS011;9350;53.176;8.194;2023-01-28T00:05:44;4.53;;;4.10;;
18443;SDS011;9350;53.176;8.194;2023-01-28T00:08:10;5.57;;;4.68;;
18443;SDS011;9350;53.176;8.194;2023-01-28T00:10:39;5.22;;;4.47;;
18443;SDS011;9350;53.176;8.194;2023-01-28T00:13:08;4.65;;;4.18;;
18443;SDS011;9350;53.176;8.194;2023-01-28T00:15:37;5.45;;;4.13;;
18443;SDS011;9350;53.176;8.194;2023-01-28T00:18:04;4.05;;;3.75;;
18443;SDS011;9350;53.176;8.194;2023-01-28T00:20:31;6.45;;;4.63;;
18443;SDS011;9350;53.176;8.194;2023-01-28T00:22:59;4.50;;;4.10;;
18443;SDS011;9350;53.176;8.194;2023-01-28T00:25:26;4.38;;;3.97;;
18443;SDS011;9350;53.176;8.194;2023-01-28T00:27:52;4.35;;;3.63;;
18443;SDS011;9350;53.176;8.194;2023-01-28T00:30:21;4.30;;;3.90;;
18443;SDS011;9350;53.176;8.194;2023-01-28T00:32:47;4.03;;;3.72;;
18443;SDS011;9350;53.176;8.194;2023-01-28T00:35:14;4.28;;;3.97;;
18443;SDS011;9350;53.176;8.194;2023-01-28T00:37:41;4.40;;;4.00;;
18443;SDS011;9350;53.176;8.194;2023-01-28T00:40:11;4.43;;;4.03;;
18443;SDS011;9350;53.176;8.194;2023-01-28T00:42:38;3.97;;;3.67;;
18443;SDS011;9350;53.176;8.194;2023-01-28T00:45:05;4.13;;;3.72;;
18443;SDS011;9350;53.176;8.194;2023-01-28T00:47:34;5.18;;;4.35;;
18443;SDS011;9350;53.176;8.194;2023-01-28T00:50:01;5.00;;;4.15;;
18443;SDS011;9350;53.176;8.194;2023-01-28T00:52:28;4.95;;;4.50;;
18443;SDS011;9350;53.176;8.194;2023-01-28T00:54:55;4.47;;;3.92;;
18443;SDS011;9350;53.176;8.194;2023-01-28T00:57:22;4.78;;;4.28;;
18443;SDS011;9350;53.176;8.194;2023-01-28T00:59:49;4.95;;;4.30;;
18443;SDS011;9350;53.176;8.194;2023-01-28T01:02:15;5.10;;;4.70;;
18443;SDS011;9350;53.176;8.194;2023-01-28T01:04:44;5.68;;;4.70;;
18443;SDS011;9350;53.176;8.194;2023-01-28T01:07:19;4.32;;;4.00;;
18443;SDS011;9350;53.176;8.194;2023-01-28T01:09:47;4.90;;;4.32;;
18443;SDS011;9350;53.176;8.194;2023-01-28T01:12:14;4.78;;;4.38;;
18443;SDS011;9350;53.176;8.194;2023-01-28T01:14:41;4.50;;;4.10;;
18443;SDS011;9350;53.176;8.194;2023-01-28T01:17:08;5.20;;;3.92;;
18443;SDS011;9350;53.176;8.194;2023-01-28T01:19:35;4.65;;;4.25;;
18443;SDS011;9350;53.176;8.194;2023-01-28T01:22:04;4.03;;;3.65;;
18443;SDS011;9350;53.176;8.194;2023-01-28T01:24:30;4.30;;;4.00;;
18443;SDS011;9350;53.176;8.194;2023-01-28T01:26:58;5.63;;;4.13;;
18443;SDS011;9350;53.176;8.194;2023-01-28T01:29:24;4.55;;;4.00;;
18443;SDS011;9350;53.176;8.194;2023-01-28T01:31:51;5.40;;;4.20;;
18443;SDS011;9350;53.176;8.194;2023-01-28T01:34:19;4.63;;;4.22;;
18443;SDS011;9350;53.176;8.194;2023-01-28T01:36:46;8.73;;;4.78;;
18443;SDS011;9350;53.176;8.194;2023-01-28T01:39:14;5.20;;;4.70;;
18443;SDS011;9350;53.176;8.194;2023-01-28T01:41:41;5.35;;;3.95;;
18443;SDS011;9350;53.176;8.194;2023-01-28T01:47:08;4.45;;;4.05;;
18443;SDS011;9350;53.176;8.194;2023-01-28T01:49:35;5.03;;;4.13;;
18443;SDS011;9350;53.176;8.194;2023-01-28T01:52:05;5.32;;;4.70;;
18443;SDS011;9350;53.176;8.194;2023-01-28T01:54:37;7.30;;;4.70;;
18443;SDS011;9350;53.176;8.194;2023-01-28T01:57:06;5.07;;;4.57;;
18443;SDS011;9350;53.176;8.194;2023-01-28T01:59:35;6.55;;;5.00;;
18443;SDS011;9350;53.176;8.194;2023-01-28T02:02:03;6.15;;;5.15;;
18443;SDS011;9350;53.176;8.194;2023-01-28T02:04:34;5.15;;;4.55;;
18443;SDS011;9350;53.176;8.194;2023-01-28T02:07:04;6.93;;;4.88;;
18443;SDS011;9350;53.176;8.194;2023-01-28T02:09:33;5.80;;;5.10;;
18443;SDS011;9350;53.176;8.194;2023-01-28T02:12:04;6.13;;;4.63;;
18443;SDS011;9350;53.176;8.194;2023-01-28T02:14:37;4.80;;;4.30;;
18443;SDS011;9350;53.176;8.194;2023-01-28T02:17:07;5.65;;;4.60;;
18443;SDS011;9350;53.176;8.194;2023-01-28T02:19:35;5.40;;;4.88;;
18443;SDS011;9350;53.176;8.194;2023-01-28T02:22:05;4.70;;;4.30;;
18443;SDS011;9350;53.176;8.194;2023-01-28T02:24:47;6.97;;;5.45;;
18443;SDS011;9350;53.176;8.194;2023-01-28T02:27:35;6.18;;;4.90;;
18443;SDS011;9350;53.176;8.194;2023-01-28T02:30:14;6.72;;;5.03;;
18443;SDS011;9350;53.176;8.194;2023-01-28T02:32:48;5.38;;;4.88;;
18443;SDS011;9350;53.176;8.194;2023-01-28T02:35:21;6.18;;;5.55;;
18443;SDS011;9350;53.176;8.194;2023-01-28T02:37:56;6.15;;;5.00;;
18443;SDS011;9350;53.176;8.194;2023-01-28T02:40:29;6.38;;;4.68;;
18443;SDS011;9350;53.176;8.194;2023-01-28T02:43:29;7.00;;;5.20;;
18443;SDS011;9350;53.176;8.194;2023-01-28T02:45:57;5.32;;;4.82;;
18443;SDS011;9350;53.176;8.194;2023-01-28T02:48:42;5.32;;;4.78;;
18443;SDS011;9350;53.176;8.194;2023-01-28T02:51:13;6.72;;;4.88;;
18443;SDS011;9350;53.176;8.194;2023-01-28T02:53:49;5.30;;;4.80;;
18443;SDS011;9350;53.176;8.194;2023-01-28T02:56:23;5.05;;;4.57;;
18443;SDS011;9350;53.176;8.194;2023-01-28T02:58:58;5.00;;;4.47;;
18443;SDS011;9350;53.176;8.194;2023-01-28T03:01:46;7.30;;;4.75;;
18443;SDS011;9350;53.176;8.194;2023-01-28T03:04:22;5.90;;;4.88;;
18443;SDS011;9350;53.176;8.194;2023-01-28T03:06:54;5.32;;;4.75;;
18443;SDS011;9350;53.176;8.194;2023-01-28T03:09:27;8.23;;;5.32;;
18443;SDS011;9350;53.176;8.194;2023-01-28T03:11:55;4.72;;;4.32;;
18443;SDS011;9350;53.176;8.194;2023-01-28T03:14:44;6.28;;;4.68;;
18443;SDS011;9350;53.176;8.194;2023-01-28T03:17:31;8.98;;;4.60;;
18443;SDS011;9350;53.176;8.194;2023-01-28T03:20:20;5.38;;;4.88;;
18443;SDS011;9350;53.176;8.194;2023-01-28T03:23:08;5.50;;;4.63;;
18443;SDS011;9350;53.176;8.194;2023-01-28T03:25:57;5.38;;;4.82;;
18443;SDS011;9350;53.176;8.194;2023-01-28T03:28:43;8.43;;;4.50;;
18443;SDS011;9350;53.176;8.194;2023-01-28T03:31:30;6.60;;;5.32;;
18443;SDS011;9350;53.176;8.194;2023-01-28T03:34:16;7.38;;;4.93;;
18443;SDS011;9350;53.176;8.194;2023-01-28T03:37:03;7.07;;;5.53;;
18443;SDS011;9350;53.176;8.194;2023-01-28T03:39:30;8.40;;;5.07;;
18443;SDS011;9350;53.176;8.194;2023-01-28T03:41:58;6.68;;;4.90;;
18443;SDS011;9350;53.176;8.194;2023-01-28T03:44:30;7.18;;;5.05;;
18443;SDS011;9350;53.176;8.194;2023-01-28T03:47:18;6.97;;;5.03;;
18443;SDS011;9350;53.176;8.194;2023-01-28T03:49:47;7.60;;;5.20;;
18443;SDS011;9350;53.176;8.194;2023-01-28T03:52:15;6.40;;;5.25;;
18443;SDS011;9350;53.176;8.194;2023-01-28T03:54:43;5.03;;;4.53;;
18443;SDS011;9350;53.176;8.194;2023-01-28T03:57:11;7.18;;;5.18;;
18443;SDS011;9350;53.176;8.194;2023-01-28T03:59:39;6.85;;;4.78;;
18443;SDS011;9350;53.176;8.194;2023-01-28T04:02:06;5.15;;;4.47;;
18443;SDS011;9350;53.176;8.194;2023-01-28T04:04:36;7.05;;;5.05;;
18443;SDS011;9350;53.176;8.194;2023-01-28T04:07:03;6.28;;;4.80;;
18443;SDS011;9350;53.176;8.194;2023-01-28T04:09:32;5.07;;;4.60;;
18443;SDS011;9350;53.176;8.194;2023-01-28T04:11:59;6.07;;;5.03;;
18443;SDS011;9350;53.176;8.194;2023-01-28T04:14:26;5.30;;;4.80;;
18443;SDS011;9350;53.176;8.194;2023-01-28T04:16:53;6.05;;;4.88;;
18443;SDS011;9350;53.176;8.194;2023-01-28T04:19:20;6.15;;;4.63;;
18443;SDS011;9350;53.176;8.194;2023-01-28T04:21:48;6.57;;;4.95;;
18443;SDS011;9350;53.176;8.194;2023-01-28T04:24:18;7.65;;;4.95;;
18443;SDS011;9350;53.176;8.194;2023-01-28T04:26:45;7.60;;;5.60;;
18443;SDS011;9350;53.176;8.194;2023-01-28T04:29:12;8.02;;;5.22;;
18443;SDS011;9350;53.176;8.194;2023-01-28T04:31:39;8.60;;;5.53;;
18443;SDS011;9350;53.176;8.194;2023-01-28T04:34:05;7.65;;;5.55;;
18443;SDS011;9350;53.176;8.194;2023-01-28T04:36:33;12.10;;;6.07;;
18443;SDS011;9350;53.176;8.194;2023-01-28T04:39:01;6.85;;;5.35;;
18443;SDS011;9350;53.176;8.194;2023-01-28T04:41:28;9.50;;;6.45;;
18443;SDS011;9350;53.176;8.194;2023-01-28T04:43:55;13.45;;;6.78;;
18443;SDS011;9350;53.176;8.194;2023-01-28T04:46:22;9.00;;;6.13;;
18443;SDS011;9350;53.176;8.194;2023-01-28T04:48:48;11.85;;;6.07;;
18443;SDS011;9350;53.176;8.194;2023-01-28T04:51:15;11.75;;;6.38;;
18443;SDS011;9350;53.176;8.194;2023-01-28T04:53:42;10.85;;;6.03;;
18443;SDS011;9350;53.176;8.194;2023-01-28T04:56:10;10.40;;;6.80;;
18443;SDS011;9350;53.176;8.194;2023-01-28T04:58:37;11.65;;;6.50;;
18443;SDS011;9350;53.176;8.194;2023-01-28T05:01:03;10.32;;;6.93;;
18443;SDS011;9350;53.176;8.194;2023-01-28T05:03:30;13.07;;;7.38;;
18443;SDS011;9350;53.176;8.194;2023-01-28T05:05:57;11.07;;;6.68;;
18443;SDS011;9350;53.176;8.194;2023-01-28T05:08:24;12.00;;;6.10;;
18443;SDS011;9350;53.176;8.194;2023-01-28T05:10:50;8.85;;;6.25;;
18443;SDS011;9350;53.176;8.194;2023-01-28T05:13:19;9.32;;;6.13;;
18443;SDS011;9350;53.176;8.194;2023-01-28T05:15:49;8.77;;;6.32;;
18443;SDS011;9350;53.176;8.194;2023-01-28T05:18:17;8.13;;;5.82;;
18443;SDS011;9350;53.176;8.194;2023-01-28T05:20:44;10.77;;;5.93;;
18443;SDS011;9350;53.176;8.194;2023-01-28T05:23:10;11.95;;;6.10;;
18443;SDS011;9350;53.176;8.194;2023-01-28T05:25:37;7.60;;;5.68;;
18443;SDS011;9350;53.176;8.194;2023-01-28T05:28:04;9.95;;;6.35;;
18443;SDS011;9350;53.176;8.194;2023-01-28T05:30:32;13.77;;;6.38;;
18443;SDS011;9350;53.176;8.194;2023-01-28T05:32:59;8.80;;;6.22;;
18443;SDS011;9350;53.176;8.194;2023-01-28T05:35:26;8.05;;;6.00;;
18443;SDS011;9350;53.176;8.194;2023-01-28T05:37:53;9.30;;;5.57;;
18443;SDS011;9350;53.176;8.194;2023-01-28T05:40:19;8.65;;;5.95;;
18443;SDS011;9350;53.176;8.194;2023-01-28T05:42:46;7.82;;;6.07;;
18443;SDS011;9350;53.176;8.194;2023-01-28T05:45:13;9.65;;;5.78;;
18443;SDS011;9350;53.176;8.194;2023-01-28T05:47:41;8.38;;;5.88;;
18443;SDS011;9350;53.176;8.194;2023-01-28T05:50:09;9.13;;;5.88;;
18443;SDS011;9350;53.176;8.194;2023-01-28T05:52:38;11.43;;;6.05;;
18443;SDS011;9350;53.176;8.194;2023-01-28T05:55:05;8.82;;;5.93;;
18443;SDS011;9350;53.176;8.194;2023-01-28T05:57:33;9.40;;;5.88;;
18443;SDS011;9350;53.176;8.194;2023-01-28T05:59:59;9.15;;;5.82;;
18443;SDS011;9350;53.176;8.194;2023-01-28T06:02:26;8.13;;;6.18;;
18443;SDS011;9350;53.176;8.194;2023-01-28T06:04:54;7.25;;;5.43;;
18443;SDS011;9350;53.176;8.194;2023-01-28T06:07:21;10.85;;;6.50;;
18443;SDS011;9350;53.176;8.194;2023-01-28T06:09:49;6.90;;;5.95;;
18443;SDS011;9350;53.176;8.194;2023-01-28T06:12:15;9.02;;;6.93;;
18443;SDS011;9350;53.176;8.194;2023-01-28T06:14:42;7.72;;;6.38;;
18443;SDS011;9350;53.176;8.194;2023-01-28T06:17:09;8.05;;;6.65;;
18443;SDS011;9350;53.176;8.194;2023-01-28T06:19:36;10.57;;;6.60;;
18443;SDS011;9350;53.176;8.194;2023-01-28T06:22:04;8.30;;;6.28;;
18443;SDS011;9350;53.176;8.194;2023-01-28T06:24:31;9.38;;;6.32;;
18443;SDS011;9350;53.176;8.194;2023-01-28T06:26:57;8.85;;;6.32;;
18443;SDS011;9350;53.176;8.194;2023-01-28T06:29:24;9.50;;;6.70;;
18443;SDS011;9350;53.176;8.194;2023-01-28T06:31:51;12.63;;;6.78;;
18443;SDS011;9350;53.176;8.194;2023-01-28T06:34:18;8.30;;;6.55;;
18443;SDS011;9350;53.176;8.194;2023-01-28T06:36:45;9.30;;;6.70;;
18443;SDS011;9350;53.176;8.194;2023-01-28T06:39:13;8.68;;;6.47;;
18443;SDS011;9350;53.176;8.194;2023-01-28T06:41:40;9.15;;;6.75;;
18443;SDS011;9350;53.176;8.194;2023-01-28T06:44:07;9.32;;;6.53;;
18443;SDS011;9350;53.176;8.194;2023-01-28T06:46:34;11.30;;;7.30;;
18443;SDS011;9350;53.176;8.194;2023-01-28T06:49:00;12.38;;;8.10;;
18443;SDS011;9350;53.176;8.194;2023-01-28T06:51:27;13.18;;;7.93;;
18443;SDS011;9350;53.176;8.194;2023-01-28T06:53:54;14.68;;;8.02;;
18443;SDS011;9350;53.176;8.194;2023-01-28T06:56:22;11.18;;;7.70;;
18443;SDS011;9350;53.176;8.194;2023-01-28T06:58:49;16.92;;;10.20;;
18443;SDS011;9350;53.176;8.194;2023-01-28T07:01:16;14.75;;;8.90;;
18443;SDS011;9350;53.176;8.194;2023-01-28T07:03:42;13.65;;;7.95;;
18443;SDS011;9350;53.176;8.194;2023-01-28T07:06:09;12.32;;;7.78;;
18443;SDS011;9350;53.176;8.194;2023-01-28T07:08:36;14.57;;;8.88;;
18443;SDS011;9350;53.176;8.194;2023-01-28T07:11:03;12.02;;;7.60;;
18443;SDS011;9350;53.176;8.194;2023-01-28T07:13:32;12.38;;;7.60;;
18443;SDS011;9350;53.176;8.194;2023-01-28T07:15:59;14.20;;;7.85;;
18443;SDS011;9350;53.176;8.194;2023-01-28T07:18:26;11.80;;;7.43;;
18443;SDS011;9350;53.176;8.194;2023-01-28T07:20:53;14.77;;;7.60;;
18443;SDS011;9350;53.176;8.194;2023-01-28T07:23:20;13.15;;;7.45;;
18443;SDS011;9350;53.176;8.194;2023-01-28T07:25:47;11.95;;;7.90;;
18443;SDS011;9350;53.176;8.194;2023-01-28T07:28:14;11.23;;;7.60;;
18443;SDS011;9350;53.176;8.194;2023-01-28T07:30:46;12.43;;;8.32;;
18443;SDS011;9350;53.176;8.194;2023-01-28T07:33:14;16.45;;;9.18;;
18443;SDS011;9350;53.176;8.194;2023-01-28T07:35:41;16.98;;;9.88;;
18443;SDS011;9350;53.176;8.194;2023-01-28T07:38:07;20.17;;;11.65;;
18443;SDS011;9350;53.176;8.194;2023-01-28T07:40:34;20.58;;;11.43;;
18443;SDS011;9350;53.176;8.194;2023-01-28T07:43:01;19.25;;;10.82;;
18443;SDS011;9350;53.176;8.194;2023-01-28T07:45:28;28.60;;;13.57;;
18443;SDS011;9350;53.176;8.194;2023-01-28T07:47:58;27.35;;;13.60;;
18443;SDS011;9350;53.176;8.194;2023-01-28T07:50:26;24.15;;;13.15;;
18443;SDS011;9350;53.176;8.194;2023-01-28T07:52:53;24.70;;;12.02;;
18443;SDS011;9350;53.176;8.194;2023-01-28T07:55:20;25.98;;;11.05;;
18443;SDS011;9350;53.176;8.194;2023-01-28T07:57:51;20.35;;;11.50;;
18443;SDS011;9350;53.176;8.194;2023-01-28T08:00:18;18.25;;;10.73;;
18443;SDS011;9350;53.176;8.194;2023-01-28T08:02:46;38.50;;;16.90;;
18443;SDS011;9350;53.176;8.194;2023-01-28T08:05:19;34.33;;;15.15;;
18443;SDS011;9350;53.176;8.194;2023-01-28T08:07:47;29.38;;;13.65;;
18443;SDS011;9350;53.176;8.194;2023-01-28T08:10:14;23.60;;;12.98;;
18443;SDS011;9350;53.176;8.194;2023-01-28T08:12:49;32.08;;;15.75;;
18443;SDS011;9350;53.176;8.194;2023-01-28T08:15:17;31.75;;;15.35;;
18443;SDS011;9350;53.176;8.194;2023-01-28T08:17:44;31.38;;;15.25;;
18443;SDS011;9350;53.176;8.194;2023-01-28T08:20:11;28.85;;;14.75;;
18443;SDS011;9350;53.176;8.194;2023-01-28T08:22:39;26.38;;;13.75;;
18443;SDS011;9350;53.176;8.194;2023-01-28T08:25:06;27.33;;;14.20;;
18443;SDS011;9350;53.176;8.194;2023-01-28T08:27:34;24.35;;;13.00;;
18443;SDS011;9350;53.176;8.194;2023-01-28T08:30:04;26.20;;;13.13;;
18443;SDS011;9350;53.176;8.194;2023-01-28T08:32:33;41.20;;;19.13;;
18443;SDS011;9350;53.176;8.194;2023-01-28T08:35:07;38.03;;;18.15;;
18443;SDS011;9350;53.176;8.194;2023-01-28T08:37:34;26.33;;;14.55;;
18443;SDS011;9350;53.176;8.194;2023-01-28T08:40:03;31.40;;;14.65;;
18443;SDS011;9350;53.176;8.194;2023-01-28T08:42:31;23.95;;;13.48;;
18443;SDS011;9350;53.176;8.194;2023-01-28T08:44:58;26.35;;;13.68;;
18443;SDS011;9350;53.176;8.194;2023-01-28T08:47:24;27.45;;;14.05;;
18443;SDS011;9350;53.176;8.194;2023-01-28T08:49:51;28.73;;;14.18;;
18443;SDS011;9350;53.176;8.194;2023-01-28T08:52:18;23.40;;;13.30;;
18443;SDS011;9350;53.176;8.194;2023-01-28T08:54:45;23.65;;;13.35;;
18443;SDS011;9350;53.176;8.194;2023-01-28T08:57:13;23.80;;;13.15;;
18443;SDS011;9350;53.176;8.194;2023-01-28T08:59:40;22.65;;;13.02;;
18443;SDS011;9350;53.176;8.194;2023-01-28T09:02:11;23.08;;;12.80;;
18443;SDS011;9350;53.176;8.194;2023-01-28T09:04:39;21.80;;;13.07;;
18443;SDS011;9350;53.176;8.194;2023-01-28T09:07:07;22.38;;;13.00;;
18443;SDS011;9350;53.176;8.194;2023-01-28T09:09:34;22.50;;;12.70;;
18443;SDS011;9350;53.176;8.194;2023-01-28T09:12:00;23.05;;;13.13;;
18443;SDS011;9350;53.176;8.194;2023-01-28T09:14:29;22.45;;;13.50;;
18443;SDS011;9350;53.176;8.194;2023-01-28T09:16:55;23.75;;;13.77;;
18443;SDS011;9350;53.176;8.194;2023-01-28T09:19:22;24.20;;;13.18;;
18443;SDS011;9350;53.176;8.194;2023-01-28T09:21:49;24.33;;;13.18;;
18443;SDS011;9350;53.176;8.194;2023-01-28T09:24:16;21.27;;;11.95;;
18443;SDS011;9350;53.176;8.194;2023-01-28T09:26:43;19.25;;;11.80;;
18443;SDS011;9350;53.176;8.194;2023-01-28T09:29:10;23.10;;;12.60;;
18443;SDS011;9350;53.176;8.194;2023-01-28T09:31:38;21.30;;;13.13;;
18443;SDS011;9350;53.176;8.194;2023-01-28T09:34:05;18.33;;;12.20;;
18443;SDS011;9350;53.176;8.194;2023-01-28T09:36:32;21.30;;;13.07;;
18443;SDS011;9350;53.176;8.194;2023-01-28T09:38:59;21.42;;;12.55;;
18443;SDS011;9350;53.176;8.194;2023-01-28T09:41:27;19.73;;;12.75;;
18443;SDS011;9350;53.176;8.194;2023-01-28T09:44:05;18.90;;;12.10;;
18443;SDS011;9350;53.176;8.194;2023-01-28T09:46:45;19.15;;;11.00;;
18443;SDS011;9350;53.176;8.194;2023-01-28T09:49:15;17.30;;;11.90;;
18443;SDS011;9350;53.176;8.194;2023-01-28T09:51:46;19.83;;;12.05;;
18443;SDS011;9350;53.176;8.194;2023-01-28T09:54:23;16.67;;;10.38;;
18443;SDS011;9350;53.176;8.194;2023-01-28T09:56:56;20.52;;;11.80;;
18443;SDS011;9350;53.176;8.194;2023-01-28T09:59:30;19.25;;;11.52;;
18443;SDS011;9350;53.176;8.194;2023-01-28T10:02:03;16.88;;;10.63;;
18443;SDS011;9350;53.176;8.194;2023-01-28T10:04:53;18.48;;;10.63;;
18443;SDS011;9350;53.176;8.194;2023-01-28T10:07:30;25.38;;;14.20;;
18443;SDS011;9350;53.176;8.194;2023-01-28T10:10:02;21.27;;;12.48;;
18443;SDS011;9350;53.176;8.194;2023-01-28T10:12:47;23.30;;;13.13;;
18443;SDS011;9350;53.176;8.194;2023-01-28T10:15:46;16.92;;;11.15;;
18443;SDS011;9350;53.176;8.194;2023-01-28T10:18:34;19.50;;;10.52;;
18443;SDS011;9350;53.176;8.194;2023-01-28T10:21:06;16.40;;;10.07;;
18443;SDS011;9350;53.176;8.194;2023-01-28T10:23:40;13.27;;;9.25;;
18443;SDS011;9350;53.176;8.194;2023-01-28T10:26:21;12.93;;;9.00;;
18443;SDS011;9350;53.176;8.194;2023-01-28T10:28:52;14.95;;;9.75;;
18443;SDS011;9350;53.176;8.194;2023-01-28T10:31:22;12.15;;;7.97;;
18443;SDS011;9350;53.176;8.194;2023-01-28T10:33:54;16.30;;;9.43;;
18443;SDS011;9350;53.176;8.194;2023-01-28T10:36:21;13.88;;;9.13;;
18443;SDS011;9350;53.176;8.194;2023-01-28T10:38:49;11.45;;;7.93;;
18443;SDS011;9350;53.176;8.194;2023-01-28T10:41:19;14.77;;;8.90;;
18443;SDS011;9350;53.176;8.194;2023-01-28T10:43:47;11.60;;;8.32;;
18443;SDS011;9350;53.176;8.194;2023-01-28T10:46:16;10.77;;;7.85;;
18443;SDS011;9350;53.176;8.194;2023-01-28T10:48:47;12.50;;;8.85;;
18443;SDS011;9350;53.176;8.194;2023-01-28T10:51:29;13.52;;;9.68;;
18443;SDS011;9350;53.176;8.194;2023-01-28T10:53:57;12.25;;;8.50;;
18443;SDS011;9350;53.176;8.194;2023-01-28T10:56:25;13.82;;;8.98;;
18443;SDS011;9350;53.176;8.194;2023-01-28T10:58:56;12.75;;;8.90;;
18443;SDS011;9350;53.176;8.194;2023-01-28T11:01:36;15.07;;;9.00;;
18443;SDS011;9350;53.176;8.194;2023-01-28T11:04:14;14.02;;;8.85;;
18443;SDS011;9350;53.176;8.194;2023-01-28T11:06:50;16.55;;;8.57;;
18443;SDS011;9350;53.176;8.194;2023-01-28T11:09:22;15.02;;;9.48;;
18443;SDS011;9350;53.176;8.194;2023-01-28T11:11:50;12.98;;;9.45;;
18443;SDS011;9350;53.176;8.194;2023-01-28T11:14:18;13.05;;;9.25;;
18443;SDS011;9350;53.176;8.194;2023-01-28T11:16:46;12.38;;;9.02;;
18443;SDS011;9350;53.176;8.194;2023-01-28T11:19:15;14.13;;;8.68;;
18443;SDS011;9350;53.176;8.194;2023-01-28T11:21:48;18.02;;;8.32;;
18443;SDS011;9350;53.176;8.194;2023-01-28T11:24:18;13.35;;;7.35;;
18443;SDS011;9350;53.176;8.194;2023-01-28T11:26:48;12.48;;;8.27;;
18443;SDS011;9350;53.176;8.194;2023-01-28T11:29:19;14.40;;;8.13;;
18443;SDS011;9350;53.176;8.194;2023-01-28T11:31:50;13.32;;;8.40;;
18443;SDS011;9350;53.176;8.194;2023-01-28T11:34:19;10.63;;;7.80;;
18443;SDS011;9350;53.176;8.194;2023-01-28T11:36:50;12.68;;;7.93;;
18443;SDS011;9350;53.176;8.194;2023-01-28T11:39:19;11.48;;;8.30;;
18443;SDS011;9350;53.176;8.194;2023-01-28T11:41:50;15.23;;;8.40;;
18443;SDS011;9350;53.176;8.194;2023-01-28T11:44:19;11.65;;;8.10;;
18443;SDS011;9350;53.176;8.194;2023-01-28T11:46:52;12.20;;;7.75;;
18443;SDS011;9350;53.176;8.194;2023-01-28T11:49:30;13.43;;;7.93;;
18443;SDS011;9350;53.176;8.194;2023-01-28T11:52:09;10.52;;;7.82;;
18443;SDS011;9350;53.176;8.194;2023-01-28T11:54:45;10.65;;;8.23;;
18443;SDS011;9350;53.176;8.194;2023-01-28T11:57:23;10.23;;;7.63;;
18443;SDS011;9350;53.176;8.194;2023-01-28T12:02:58;11.98;;;8.23;;
18443;SDS011;9350;53.176;8.194;2023-01-28T12:05:41;10.15;;;7.35;;
18443;SDS011;9350;53.176;8.194;2023-01-28T12:08:19;11.05;;;7.60;;
18443;SDS011;9350;53.176;8.194;2023-01-28T12:10:52;13.27;;;7.93;;
18443;SDS011;9350;53.176;8.194;2023-01-28T12:13:37;12.52;;;7.53;;
18443;SDS011;9350;53.176;8.194;2023-01-28T12:16:17;9.55;;;7.68;;
18443;SDS011;9350;53.176;8.194;2023-01-28T12:19:13;10.48;;;7.65;;
18443;SDS011;9350;53.176;8.194;2023-01-28T12:22:02;15.40;;;7.35;;
18443;SDS011;9350;53.176;8.194;2023-01-28T12:24:49;12.40;;;7.57;;
18443;SDS011;9350;53.176;8.194;2023-01-28T12:27:30;10.65;;;7.65;;
18443;SDS011;9350;53.176;8.194;2023-01-28T12:30:10;11.00;;;7.75;;
18443;SDS011;9350;53.176;8.194;2023-01-28T12:32:50;11.38;;;8.20;;
18443;SDS011;9350;53.176;8.194;2023-01-28T12:35:27;10.02;;;7.43;;
18443;SDS011;9350;53.176;8.194;2023-01-28T12:38:02;13.05;;;7.88;;
18443;SDS011;9350;53.176;8.194;2023-01-28T12:43:26;14.70;;;7.75;;
18443;SDS011;9350;53.176;8.194;2023-01-28T12:46:08;10.82;;;7.32;;
18443;SDS011;9350;53.176;8.194;2023-01-28T12:48:41;11.43;;;7.65;;
18443;SDS011;9350;53.176;8.194;2023-01-28T12:51:13;11.77;;;7.88;;
18443;SDS011;9350;53.176;8.194;2023-01-28T12:53:47;11.57;;;7.95;;
18443;SDS011;9350;53.176;8.194;2023-01-28T12:56:18;12.40;;;8.00;;
18443;SDS011;9350;53.176;8.194;2023-01-28T12:58:51;11.25;;;7.38;;
18443;SDS011;9350;53.176;8.194;2023-01-28T13:01:23;11.32;;;7.93;;
18443;SDS011;9350;53.176;8.194;2023-01-28T13:03:55;12.15;;;8.55;;
18443;SDS011;9350;53.176;8.194;2023-01-28T13:06:29;12.52;;;8.07;;
18443;SDS011;9350;53.176;8.194;2023-01-28T13:09:01;10.27;;;7.57;;
18443;SDS011;9350;53.176;8.194;2023-01-28T13:11:36;11.05;;;7.28;;
18443;SDS011;9350;53.176;8.194;2023-01-28T13:14:04;12.23;;;6.57;;
18443;SDS011;9350;53.176;8.194;2023-01-28T13:16:32;9.38;;;6.75;;
18443;SDS011;9350;53.176;8.194;2023-01-28T13:19:20;10.70;;;7.15;;
18443;SDS011;9350;53.176;8.194;2023-01-28T13:21:48;10.45;;;7.13;;
18443;SDS011;9350;53.176;8.194;2023-01-28T13:24:19;10.30;;;7.22;;
18443;SDS011;9350;53.176;8.194;2023-01-28T13:26:48;7.88;;;6.50;;
18443;SDS011;9350;53.176;8.194;2023-01-28T13:29:18;9.27;;;6.70;;
18443;SDS011;9350;53.176;8.194;2023-01-28T13:31:47;9.73;;;6.75;;
18443;SDS011;9350;53.176;8.194;2023-01-28T13:34:30;7.65;;;6.60;;
18443;SDS011;9350;53.176;8.194;2023-01-28T13:37:04;8.02;;;6.47;;
18443;SDS011;9350;53.176;8.194;2023-01-28T13:39:46;8.18;;;6.63;;
18443;SDS011;9350;53.176;8.194;2023-01-28T13:42:19;12.48;;;6.85;;
18443;SDS011;9350;53.176;8.194;2023-01-28T13:44:48;11.23;;;6.43;;
18443;SDS011;9350;53.176;8.194;2023-01-28T13:47:20;9.18;;;6.05;;
18443;SDS011;9350;53.176;8.194;2023-01-28T13:49:54;8.85;;;6.47;;
18443;SDS011;9350;53.176;8.194;2023-01-28T13:52:24;11.40;;;6.88;;
18443;SDS011;9350;53.176;8.194;2023-01-28T13:54:57;10.15;;;6.57;;
18443;SDS011;9350;53.176;8.194;2023-01-28T13:57:42;8.50;;;6.57;;
18443;SDS011;9350;53.176;8.194;2023-01-28T14:00:28;9.80;;;6.72;;
18443;SDS011;9350;53.176;8.194;2023-01-28T14:03:15;9.45;;;6.38;;
18443;SDS011;9350;53.176;8.194;2023-01-28T14:06:07;9.20;;;6.85;;
18443;SDS011;9350;53.176;8.194;2023-01-28T14:08:55;9.68;;;6.43;;
18443;SDS011;9350;53.176;8.194;2023-01-28T14:11:53;11.02;;;6.90;;
18443;SDS011;9350;53.176;8.194;2023-01-28T14:14:49;10.30;;;7.35;;
18443;SDS011;9350;53.176;8.194;2023-01-28T14:17:52;10.38;;;6.97;;
18443;SDS011;9350;53.176;8.194;2023-01-28T14:20:21;9.30;;;7.25;;
18443;SDS011;9350;53.176;8.194;2023-01-28T14:22:53;9.98;;;7.15;;
18443;SDS011;9350;53.176;8.194;2023-01-28T14:25:26;11.98;;;7.13;;
18443;SDS011;9350;53.176;8.194;2023-01-28T14:28:00;9.70;;;7.22;;
18443;SDS011;9350;53.176;8.194;2023-01-28T14:30:33;9.85;;;7.10;;
18443;SDS011;9350;53.176;8.194;2023-01-28T14:33:08;10.55;;;6.82;;
18443;SDS011;9350;53.176;8.194;2023-01-28T14:35:37;9.13;;;6.50;;
18443;SDS011;9350;53.176;8.194;2023-01-28T14:38:11;10.88;;;7.20;;
18443;SDS011;9350;53.176;8.194;2023-01-28T14:40:40;11.77;;;7.35;;
18443;SDS011;9350;53.176;8.194;2023-01-28T14:43:12;10.68;;;6.63;;
18443;SDS011;9350;53.176;8.194;2023-01-28T14:46:12;9.18;;;6.90;;
18443;SDS011;9350;53.176;8.194;2023-01-28T14:49:18;10.02;;;6.80;;
18443;SDS011;9350;53.176;8.194;2023-01-28T15:02:23;10.90;;;7.65;;
18443;SDS011;9350;53.176;8.194;2023-01-28T15:04:50;14.82;;;8.38;;
18443;SDS011;9350;53.176;8.194;2023-01-28T15:07:18;11.93;;;7.57;;
18443;SDS011;9350;53.176;8.194;2023-01-28T15:09:47;10.07;;;6.97;;
18443;SDS011;9350;53.176;8.194;2023-01-28T15:12:24;18.00;;;7.90;;
18443;SDS011;9350;53.176;8.194;2023-01-28T15:14:51;9.63;;;7.40;;
18443;SDS011;9350;53.176;8.194;2023-01-28T15:17:20;13.20;;;7.82;;
18443;SDS011;9350;53.176;8.194;2023-01-28T15:19:51;8.40;;;6.60;;
18443;SDS011;9350;53.176;8.194;2023-01-28T15:22:21;13.02;;;6.53;;
18443;SDS011;9350;53.176;8.194;2023-01-28T15:24:51;10.27;;;6.28;;
18443;SDS011;9350;53.176;8.194;2023-01-28T15:27:20;13.00;;;7.03;;
18443;SDS011;9350;53.176;8.194;2023-01-28T15:29:53;16.17;;;6.45;;
18443;SDS011;9350;53.176;8.194;2023-01-28T15:32:22;8.32;;;6.00;;
18443;SDS011;9350;53.176;8.194;2023-01-28T15:34:51;13.30;;;6.32;;